Flight Track Log - Related Links

Times and Time Zones

All times are in EDT time to prevent confusion due to time zone crossing. See the N800K flight status page for this flight to view local times or setup timezone preferences in your user account.

Time Position Orientation Groundspeed Altitude Reporting Facility
EDT Latitude Longitude Course Direction KTS MPH feet Rate Location/Type
Sun 04:30:00 PM 33.9123 -79.3750 292° West  Level Estimated
Sun 04:31:00 PM 33.9262 -79.4171 292° West  Level FlightAware Approximate
Sun 04:32:00 PM 33.9402 -79.4593 292° West  Level FlightAware Approximate
Sun 04:33:00 PM 33.9541 -79.5015 292° West  Level FlightAware Approximate
Sun 04:34:00 PM 33.9690 -79.5468 292° West  Level FlightAware Approximate
Sun 04:35:00 PM 33.9839 -79.5920 292° West  Level FlightAware Approximate
Sun 04:36:00 PM 33.9988 -79.6373 292° West  Level FlightAware Approximate
Sun 04:37:00 PM 34.0136 -79.6826 292° West  Level FlightAware Approximate
Sun 04:38:00 PM 34.0285 -79.7280 292° West  Level FlightAware Approximate
Sun 04:39:00 PM 34.0433 -79.7733 292° West  Level FlightAware Approximate
Sun 04:40:00 PM 34.0581 -79.8187 292° West  Level FlightAware Approximate
Sun 04:41:00 PM 34.0729 -79.8640 291° West  Level FlightAware Approximate
Sun 04:42:00 PM 34.0877 -79.9094 291° West  Level FlightAware Approximate
Sun 04:43:00 PM 34.1025 -79.9548 291° West  Level FlightAware Approximate
Sun 04:44:00 PM 34.1172 -80.0003 291° West  Level FlightAware Approximate
Sun 04:45:00 PM 34.1319 -80.0457 291° West  Level FlightAware Approximate
Sun 04:46:00 PM 34.1466 -80.0911 291° West  Level FlightAware Approximate
Sun 04:47:00 PM 34.1612 -80.1367 291° West  Level FlightAware Approximate
Sun 04:48:00 PM 34.1758 -80.1822 291° West  Level FlightAware Approximate
Sun 04:49:00 PM 34.1904 -80.2277 291° West  Level FlightAware Approximate
Sun 04:50:00 PM 34.2050 -80.2732 291° West  Level FlightAware Approximate
Sun 04:51:00 PM 34.2195 -80.3188 291° West  Level FlightAware Approximate
Sun 04:52:00 PM 34.2341 -80.3644 291° West  Level FlightAware Approximate
Sun 04:53:00 PM 34.2486 -80.4100 291° West  Level FlightAware Approximate
Sun 04:54:00 PM 34.2631 -80.4556 291° West  Level FlightAware Approximate
Sun 04:55:00 PM 34.2776 -80.5012 291° West  Level FlightAware Approximate
Sun 04:56:00 PM 34.2920 -80.5469 291° West  Level FlightAware Approximate
Sun 04:57:00 PM 34.3065 -80.5925 291° West  Level FlightAware Approximate
Sun 04:58:00 PM 34.3209 -80.6382 291° West  Level FlightAware Approximate
Sun 04:59:00 PM 34.3354 -80.6839 291° West  Level FlightAware Approximate
Sun 05:00:00 PM 34.3498 -80.7296 291° West  Level FlightAware Approximate
Sun 05:01:00 PM 34.3642 -80.7753 291° West  Level FlightAware Approximate
Sun 05:02:00 PM 34.3780 -80.8213 290° West  Level FlightAware Approximate
Sun 05:03:00 PM 34.3917 -80.8673 290° West  Level FlightAware Approximate
Sun 05:04:00 PM 34.4054 -80.9134 290° West  Level FlightAware Approximate
Sun 05:04:24 PM 34.4161 -80.9114 290° West 140 161 4,000  Level Atlanta Center
Sun 05:05:00 PM 34.4191 -80.9595 290° West  Level FlightAware Approximate
Sun 05:05:31 PM 34.4297 -80.9589 289° West 145 167 4,000  Level Atlanta Center
Sun 05:06:00 PM 34.4328 -81.0055 290° West  Level FlightAware Approximate
Sun 05:06:32 PM 34.4456 -81.0086 291° West 142 163 4,000  Level Atlanta Center
Sun 05:07:00 PM 34.4464 -81.0517 290° West  Level FlightAware Approximate
Sun 05:07:33 PM 34.4592 -81.0533 290° West 143 165 4,000  Level Atlanta Center
Sun 05:08:00 PM 34.4600 -81.0978 290° West  Level FlightAware Approximate
Sun 05:08:35 PM 34.4728 -81.0983 290° West 141 162 4,000  Level Atlanta Center
Sun 05:09:00 PM 34.4737 -81.1439 290° West  Level FlightAware Approximate
Sun 05:09:36 PM 34.4886 -81.1456 292° West 148 170 4,000  Level Atlanta Center
Sun 05:10:37 PM 34.5042 -81.1931 292° West 144 166 4,000  Level Atlanta Center
Sun 05:12:00 PM 34.5089 -81.2631 290° West  Level FlightAware Approximate
Sun 05:19:00 PM 34.6061 -81.5855 290° West  Level FlightAware Approximate
Sun 05:20:00 PM 34.6200 -81.6316 290° West  Level FlightAware Approximate
Sun 05:21:00 PM 34.6339 -81.6777 290° West  Level FlightAware Approximate
Sun 05:22:00 PM 34.6477 -81.7238 290° West  Level FlightAware Approximate
Sun 05:23:00 PM 34.6616 -81.7700 290° West  Level FlightAware Approximate
Sun 05:24:00 PM 34.6754 -81.8161 290° West  Level FlightAware Approximate
Sun 05:25:00 PM 34.6892 -81.8623 290° West  Level FlightAware Approximate
Sun 05:26:00 PM 34.7030 -81.9085 290° West  Level FlightAware Approximate
Sun 05:27:00 PM 34.7167 -81.9547 290° West  Level FlightAware Approximate
Sun 05:28:00 PM 34.7305 -82.0009 290° West  Level FlightAware Approximate
Sun 05:29:00 PM 34.7442 -82.0471 290° West  Level FlightAware Approximate
Sun 05:30:00 PM 34.7579 -82.0934 290° West  Level FlightAware Approximate
Sun 05:31:00 PM 34.7715 -82.1397 290° West  Level FlightAware Approximate
Sun 05:32:00 PM 34.7852 -82.1860 290° West  Level FlightAware Approximate
Sun 05:33:00 PM 34.7988 -82.2323 290° West  Level FlightAware Approximate
Sun 05:34:00 PM 34.8124 -82.2786 290° West  Level FlightAware Approximate
Sun 05:35:00 PM 34.8260 -82.3249 290° West  Level FlightAware Approximate
Sun 05:36:00 PM 34.8333 -82.3500 290° West  Level FlightAware Approximate
Sun 05:37:00 PM 34.8479 -82.3500 290° West  Level Estimated
Sun 05:38:00 PM 34.8479 -82.3500 290° West  Level Estimated
Sun 05:39:00 PM 34.8479 -82.3500 290° West  Level Estimated
Sun 05:40:00 PM 34.8479 -82.3500 290° West  Level Estimated
Sun 05:41:00 PM 34.8479 -82.3500 290° West  Level Estimated
Sun 05:42:00 PM 34.8479 -82.3500 290° West  Level Estimated
Sun 05:43:00 PM 34.8479 -82.3500 290° West  Level Estimated
Sun 05:44:00 PM 34.8479 -82.3500 290° West  Level Estimated

Login

Don't have an account? Register now (free) for customized features, flight alerts, and more!